Time;durP1;ratioP1;P1;durP2;ratioP2;P2;SDS_P1;SDS_P2;PMS_P1;PMS_P2;Temp;Humidity;BMP_temperature;BMP_pressure;BME280_temperature;BME280_humidity;BME280_pressure;Samples;Min_cycle;Max_cycle;Signal;HPM_P1;HPM_P2
2022/02/23 00:01:38;;;;;;;31.55;5.57;;;;;;;5.23;100.00;101252.00;10076716;28;20515;-73
2022/02/23 00:06:35;;;;;;;32.13;4.35;;;;;;;5.28;100.00;101268.25;10089975;28;20426;-70
2022/02/23 00:11:31;;;;;;;35.17;4.40;;;;;;;5.33;100.00;101277.50;10076632;28;20047;-70
2022/02/23 00:16:28;;;;;;;46.72;6.85;;;;;;;5.31;100.00;101290.50;10090130;28;20067;-70
2022/02/23 00:21:24;;;;;;;29.60;4.20;;;;;;;5.30;100.00;101295.13;10106078;28;20186;-72
2022/02/23 00:26:21;;;;;;;34.85;4.60;;;;;;;5.33;100.00;101301.91;10091745;28;20043;-70
2022/02/23 00:31:17;;;;;;;24.30;3.50;;;;;;;5.39;100.00;101320.63;10087303;28;20051;-69
2022/02/23 00:36:15;;;;;;;31.98;4.32;;;;;;;5.46;100.00;101325.78;10090237;28;20047;-73
2022/02/23 00:41:11;;;;;;;44.75;5.55;;;;;;;5.53;100.00;101330.97;10084537;28;20063;-73
2022/02/23 00:46:07;;;;;;;26.10;5.55;;;;;;;5.54;100.00;101349.66;10088077;28;20043;-73
2022/02/23 00:51:04;;;;;;;36.03;4.82;;;;;;;5.58;100.00;101366.22;10074533;28;20510;-71
2022/02/23 00:56:00;;;;;;;29.65;5.05;;;;;;;5.60;100.00;101364.88;10089284;28;20055;-71
2022/02/23 01:00:57;;;;;;;50.63;7.93;;;;;;;5.59;100.00;101368.69;10074593;28;20078;-72
2022/02/23 01:05:54;;;;;;;30.50;5.25;;;;;;;5.59;100.00;101384.13;10088949;28;20049;-71
2022/02/23 01:10:50;;;;;;;38.05;5.05;;;;;;;5.63;100.00;101387.94;10113593;28;20062;-71
2022/02/23 01:15:47;;;;;;;34.35;4.78;;;;;;;5.64;100.00;101376.00;10075904;28;20046;-72
2022/02/23 01:20:44;;;;;;;40.20;5.65;;;;;;;5.66;100.00;101385.53;10105210;28;20105;-71
2022/02/23 01:25:40;;;;;;;45.40;7.38;;;;;;;5.67;100.00;101397.19;10100015;28;20050;-71
2022/02/23 01:30:38;;;;;;;32.03;4.10;;;;;;;5.67;100.00;101397.19;10113053;28;20070;-71
2022/02/23 01:35:34;;;;;;;39.78;5.55;;;;;;;5.70;100.00;101412.91;10103414;28;20055;-72
2022/02/23 01:40:32;;;;;;;30.85;3.92;;;;;;;5.73;100.00;101411.56;10073800;28;20039;-72
2022/02/23 01:45:29;;;;;;;30.23;4.07;;;;;;;5.70;100.00;101412.91;10083615;28;20390;-72
2022/02/23 01:50:25;;;;;;;29.00;4.88;;;;;;;5.69;100.00;101403.97;10088209;28;20453;-70
2022/02/23 01:55:22;;;;;;;31.70;4.25;;;;;;;5.68;100.00;101426.75;10094522;28;20118;-68
2022/02/23 02:00:19;;;;;;;36.25;5.20;;;;;;;5.68;100.00;101426.75;10098742;28;20086;-73
2022/02/23 02:05:16;;;;;;;35.63;5.32;;;;;;;5.64;100.00;101431.09;10088626;28;20054;-73
2022/02/23 02:10:13;;;;;;;42.25;5.30;;;;;;;5.60;100.00;101446.25;10081376;28;20055;-74
2022/02/23 02:15:10;;;;;;;29.30;4.03;;;;;;;5.56;100.00;101450.59;10079596;28;20086;-73
2022/02/23 02:20:08;;;;;;;37.83;6.22;;;;;;;5.57;100.00;101446.81;10080649;28;20478;-70
2022/02/23 02:25:05;;;;;;;35.00;5.38;;;;;;;5.55;100.00;101478.81;10094976;28;20386;-73
2022/02/23 02:30:02;;;;;;;33.28;5.35;;;;;;;5.52;100.00;101473.09;10081331;28;20047;-69
2022/02/23 02:34:59;;;;;;;26.77;4.00;;;;;;;5.54;100.00;101496.16;10089864;28;20701;-74
2022/02/23 02:39:55;;;;;;;28.13;5.25;;;;;;;5.55;100.00;101513.25;10108417;28;20494;-69
2022/02/23 02:44:52;;;;;;;26.90;4.78;;;;;;;5.57;100.00;101519.22;10088360;28;20075;-69
2022/02/23 02:49:50;;;;;;;29.77;4.57;;;;;;;5.57;100.00;101517.34;10097423;28;20486;-69
2022/02/23 02:54:47;;;;;;;35.45;6.15;;;;;;;5.62;100.00;101520.06;10082718;28;20047;-73
2022/02/23 02:59:43;;;;;;;24.90;5.18;;;;;;;5.62;100.00;101536.34;10098379;28;20123;-73
2022/02/23 03:04:40;;;;;;;34.80;4.18;;;;;;;5.65;100.00;101546.66;10106271;28;20673;-73
2022/02/23 03:09:36;;;;;;;22.80;2.70;;;;;;;5.58;100.00;101551.50;10113884;28;20077;-71
2022/02/23 03:14:34;;;;;;;24.13;3.83;;;;;;;5.59;100.00;101574.03;10109455;28;20042;-72
2022/02/23 03:19:30;;;;;;;31.30;6.20;;;;;;;5.62;100.00;101574.34;10109877;28;20451;-72
2022/02/23 03:24:27;;;;;;;25.92;3.67;;;;;;;5.64;100.00;101588.44;10087505;28;20051;-72
2022/02/23 03:29:24;;;;;;;30.65;4.45;;;;;;;5.63;100.00;101586.00;10086079;28;20117;-72
2022/02/23 03:34:20;;;;;;;27.38;3.70;;;;;;;5.61;100.00;101583.53;10074901;28;20240;-71
2022/02/23 03:39:17;;;;;;;34.40;4.15;;;;;;;5.65;100.00;101606.34;10091351;28;20046;-71
2022/02/23 03:44:13;;;;;;;21.35;3.35;;;;;;;5.61;100.00;101599.81;10106158;28;20103;-72
2022/02/23 03:49:10;;;;;;;22.48;3.65;;;;;;;5.64;100.00;101598.47;10106931;28;20047;-71
2022/02/23 03:54:11;;;;;;;30.02;4.75;;;;;;;5.62;100.00;101617.75;10102851;28;20528;-70
2022/02/23 03:59:10;;;;;;;30.17;3.90;;;;;;;5.68;100.00;101643.00;10103937;28;20043;-70
2022/02/23 04:04:08;;;;;;;28.00;3.33;;;;;;;5.71;100.00;101637.06;10079084;28;20134;-71
2022/02/23 04:09:09;;;;;;;23.13;3.42;;;;;;;5.69;100.00;101645.47;10082819;28;20572;-71
2022/02/23 04:14:06;;;;;;;35.88;3.88;;;;;;;5.67;100.00;101663.88;10080394;28;20074;-69
2022/02/23 04:19:03;;;;;;;18.73;2.85;;;;;;;5.67;100.00;101663.88;10104865;28;20058;-69
2022/02/23 04:24:00;;;;;;;22.40;2.17;;;;;;;5.66;100.00;101662.28;10104692;28;20058;-69
2022/02/23 04:28:57;;;;;;;18.52;2.80;;;;;;;5.64;100.00;101694.28;10073311;28;20074;-70
2022/02/23 04:33:53;;;;;;;25.95;3.85;;;;;;;5.62;100.00;101688.28;10074728;28;20047;-70
2022/02/23 04:38:50;;;;;;;22.45;4.00;;;;;;;5.68;100.00;101689.13;10073518;28;20138;-70
2022/02/23 04:43:46;;;;;;;28.67;4.18;;;;;;;5.66;100.00;101705.69;10105766;28;20074;-70
2022/02/23 04:48:44;;;;;;;20.45;3.53;;;;;;;5.67;100.00;101704.59;10095108;28;20082;-71
2022/02/23 04:53:41;;;;;;;31.15;3.60;;;;;;;5.73;100.00;101704.63;10073923;28;20055;-71
2022/02/23 04:58:38;;;;;;;28.15;3.33;;;;;;;5.74;100.00;101734.22;10091109;28;20066;-69
2022/02/23 05:03:34;;;;;;;24.15;4.93;;;;;;;5.73;100.00;101731.75;10096262;28;20138;-70
2022/02/23 05:08:31;;;;;;;27.52;5.00;;;;;;;5.73;100.00;101737.19;10071729;28;20098;-70
2022/02/23 05:13:29;;;;;;;25.73;4.03;;;;;;;5.70;100.00;101750.19;10072261;28;20049;-70
2022/02/23 05:18:28;;;;;;;22.15;3.58;;;;;;;5.69;100.00;101751.28;10072369;28;20043;-73
2022/02/23 05:23:25;;;;;;;28.13;4.05;;;;;;;5.72;100.00;101757.28;10091244;28;20074;-72
2022/02/23 05:28:23;;;;;;;34.35;4.60;;;;;;;5.75;100.00;101762.16;10093050;28;20138;-73
2022/02/23 05:33:20;;;;;;;30.23;4.45;;;;;;;5.73;100.00;101775.19;10095902;28;20055;-73
2022/02/23 05:38:17;;;;;;;26.58;3.60;;;;;;;5.76;100.00;101790.97;10088435;28;20062;-73
2022/02/23 05:43:14;;;;;;;36.53;4.57;;;;;;;5.75;100.00;101800.16;10088830;28;20059;-70
2022/02/23 05:48:10;;;;;;;22.52;4.35;;;;;;;5.72;100.00;101811.53;10104986;28;20061;-69
2022/02/23 05:53:07;;;;;;;30.00;4.00;;;;;;;5.73;100.00;101824.03;10085990;28;20070;-71
2022/02/23 05:58:03;;;;;;;31.25;4.13;;;;;;;5.72;100.00;101830.53;10081576;28;20057;-68
2022/02/23 06:03:00;;;;;;;28.45;4.63;;;;;;;5.73;100.00;101841.13;10081297;28;20050;-72
2022/02/23 06:07:57;;;;;;;28.25;4.97;;;;;;;5.70;100.00;101850.59;10084457;28;20134;-73
2022/02/23 06:12:54;;;;;;;36.75;5.13;;;;;;;5.78;100.00;101853.91;10088712;28;20067;-71
2022/02/23 06:17:50;;;;;;;27.55;3.35;;;;;;;5.74;100.00;101864.47;10091916;28;20502;-70
2022/02/23 06:22:48;;;;;;;32.80;4.63;;;;;;;5.72;100.00;101882.09;10092096;28;20051;-69
2022/02/23 06:27:45;;;;;;;32.80;4.28;;;;;;;5.67;100.00;101886.41;10083443;28;20305;-69
2022/02/23 06:32:41;;;;;;;31.77;4.97;;;;;;;5.55;100.00;101899.31;10087562;28;20144;-69
2022/02/23 06:37:38;;;;;;;37.38;4.53;;;;;;;5.59;100.00;101911.28;10074506;28;20093;-69
2022/02/23 06:42:36;;;;;;;27.05;4.22;;;;;;;5.51;100.00;101925.28;10078111;28;20497;-70
2022/02/23 06:47:33;;;;;;;27.25;4.18;;;;;;;5.49;100.00;101922.00;10085075;28;20074;-69
2022/02/23 06:52:31;;;;;;;28.88;4.93;;;;;;;5.55;100.00;101926.44;10099888;28;20528;-69
2022/02/23 06:57:38;;;;;;;32.70;4.80;;;;;;;5.53;100.00;101933.19;10090638;28;20074;-69
2022/02/23 07:02:36;;;;;;;30.00;4.32;;;;;;;5.56;100.00;101936.19;10086417;28;20486;-71
2022/02/23 07:07:35;;;;;;;34.78;4.35;;;;;;;5.52;100.00;101932.34;10085072;28;20133;-72
2022/02/23 07:12:32;;;;;;;35.30;4.72;;;;;;;5.62;100.00;101948.75;10083867;28;20105;-71
2022/02/23 07:17:28;;;;;;;33.80;4.55;;;;;;;5.58;100.00;101947.63;10095325;28;20058;-70
2022/02/23 07:22:25;;;;;;;40.47;5.03;;;;;;;5.60;100.00;101956.31;10085102;28;20042;-69
2022/02/23 07:27:23;;;;;;;34.40;5.30;;;;;;;5.66;100.00;101960.75;10088635;28;20047;-69
2022/02/23 07:32:26;;;;;;;32.85;5.22;;;;;;;5.67;100.00;101973.22;10085302;28;20609;-69
2022/02/23 07:37:22;;;;;;;25.38;3.80;;;;;;;5.67;100.00;101978.66;10099869;28;20097;-69
2022/02/23 07:42:19;;;;;;;31.55;4.80;;;;;;;5.64;100.00;101979.16;10075943;28;20048;-70
2022/02/23 07:47:37;;;;;;;37.63;4.15;;;;;;;5.70;100.00;101983.56;10075547;28;20416;-69
2022/02/23 07:52:34;;;;;;;33.05;4.30;;;;;;;5.69;100.00;101998.22;10082767;28;20650;-69
2022/02/23 07:57:30;;;;;;;29.67;4.60;;;;;;;5.87;100.00;102004.38;10077597;28;20106;-68
2022/02/23 08:02:31;;;;;;;32.58;4.07;;;;;;;5.87;100.00;101998.94;10092851;28;20472;-68
2022/02/23 08:07:28;;;;;;;29.95;3.90;;;;;;;5.91;100.00;102000.09;10087739;28;20043;-70
2022/02/23 08:12:26;;;;;;;31.17;4.10;;;;;;;5.96;100.00;102008.31;10095499;28;20039;-69
2022/02/23 08:22:58;;;;;;;24.95;4.10;;;;;;;6.04;100.00;102032.31;10080528;28;20089;-69
2022/02/23 08:27:56;;;;;;;30.85;4.65;;;;;;;6.00;100.00;102036.59;10081434;28;20066;-69
2022/02/23 08:32:52;;;;;;;24.45;3.70;;;;;;;6.10;100.00;102031.28;10078145;28;20502;-69
2022/02/23 08:38:11;;;;;;;23.65;3.50;;;;;;;6.17;100.00;102057.41;10102471;28;20043;-69
2022/02/23 08:43:08;;;;;;;28.33;3.72;;;;;;;6.09;100.00;102040.50;10088949;28;20413;-69
2022/02/23 08:48:05;;;;;;;20.65;3.78;;;;;;;6.06;100.00;102049.16;10080057;28;20070;-70
2022/02/23 08:53:02;;;;;;;37.90;5.60;;;;;;;6.08;100.00;102055.16;10082217;28;20131;-69
2022/02/23 08:58:01;;;;;;;29.38;4.00;;;;;;;6.07;100.00;102058.13;10080442;28;20043;-70
2022/02/23 09:02:58;;;;;;;30.63;4.65;;;;;;;6.21;100.00;102055.81;10077000;28;20098;-69
2022/02/23 09:07:54;;;;;;;31.63;4.28;;;;;;;6.16;100.00;102072.06;10081921;28;20122;-70
2022/02/23 09:12:51;;;;;;;28.80;3.88;;;;;;;6.24;100.00;102058.03;10085326;28;20835;-70
2022/02/23 09:17:47;;;;;;;29.08;5.05;;;;;;;6.16;100.00;102055.78;10073230;28;21363;-69
2022/02/23 09:22:44;;;;;;;27.17;4.18;;;;;;;6.39;100.00;102063.63;10084971;28;21696;-70
2022/02/23 09:27:40;;;;;;;32.42;5.82;;;;;;;6.49;100.00;102063.72;10081359;28;20101;-71
2022/02/23 09:32:37;;;;;;;37.78;6.53;;;;;;;6.53;100.00;102078.44;10081445;28;20046;-69
2022/02/23 09:37:35;;;;;;;34.85;4.30;;;;;;;6.62;100.00;102075.25;10077909;28;20049;-69
2022/02/23 09:42:32;;;;;;;29.25;4.32;;;;;;;6.56;100.00;102098.00;10076053;28;20071;-69
2022/02/23 09:47:32;;;;;;;22.48;4.45;;;;;;;6.63;100.00;102098.63;10069265;28;20116;-70
2022/02/23 09:52:28;;;;;;;23.38;3.95;;;;;;;6.69;100.00;102086.72;10072466;28;20048;-70
2022/02/23 09:57:26;;;;;;;24.35;4.07;;;;;;;7.02;100.00;102073.94;10074204;28;20133;-70
2022/02/23 10:02:24;;;;;;;26.90;4.30;;;;;;;7.08;100.00;102091.94;10085551;28;20105;-69
2022/02/23 10:07:31;;;;;;;21.20;3.20;;;;;;;7.34;100.00;102080.16;10079796;28;20059;-69
2022/02/23 10:12:29;;;;;;;22.80;3.95;;;;;;;7.50;100.00;102096.59;10088934;28;20043;-70
2022/02/23 10:17:44;;;;;;;18.27;2.97;;;;;;;7.59;100.00;102095.00;10084124;28;20110;-68
2022/02/23 10:22:45;;;;;;;21.98;3.45;;;;;;;7.91;100.00;102091.31;10081471;28;20078;-71
2022/02/23 10:27:41;;;;;;;18.75;3.83;;;;;;;8.07;100.00;102101.19;10084136;28;20051;-70
2022/02/23 10:32:41;;;;;;;21.98;3.47;;;;;;;7.78;100.00;102098.91;10074585;28;20047;-68
2022/02/23 10:37:37;;;;;;;17.73;3.10;;;;;;;7.50;100.00;102118.34;10081848;28;20512;-69
2022/02/23 10:42:34;;;;;;;20.27;2.53;;;;;;;7.88;100.00;102098.13;10077939;28;20482;-69
2022/02/23 10:47:34;;;;;;;14.13;2.80;;;;;;;8.34;100.00;102100.19;10083601;28;20195;-69
2022/02/23 10:52:54;;;;;;;22.48;3.17;;;;;;;8.99;100.00;102090.47;10090301;28;20082;-70
2022/02/23 10:57:56;;;;;;;18.27;2.78;;;;;;;8.78;100.00;102103.28;10078893;28;20798;-70
2022/02/23 11:02:53;;;;;;;18.53;2.70;;;;;;;8.81;100.00;102101.94;10087365;28;20093;-69
2022/02/23 11:07:54;;;;;;;17.20;2.53;;;;;;;9.01;100.00;102126.50;10086765;28;20078;-69
2022/02/23 11:12:55;;;;;;;18.55;3.80;;;;;;;9.17;100.00;102107.38;10086921;28;20051;-69
2022/02/23 11:17:56;;;;;;;24.63;2.90;;;;;;;9.27;100.00;102118.28;10083152;28;20042;-69
2022/02/23 11:22:58;;;;;;;11.82;2.47;;;;;;;9.22;100.00;102110.13;10096448;28;20459;-69
2022/02/23 11:28:18;;;;;;;13.13;1.98;;;;;;;9.46;100.00;102102.97;10089519;28;20547;-70
2022/02/23 11:33:15;;;;;;;16.63;2.60;;;;;;;9.28;100.00;102114.44;10086381;28;20114;-70
2022/02/23 11:38:27;;;;;;;15.02;2.80;;;;;;;9.52;100.00;102102.97;10084231;28;20067;-70
2022/02/23 11:43:26;;;;;;;9.80;1.60;;;;;;;9.46;100.00;102111.16;10090767;28;20055;-70
2022/02/23 11:48:23;;;;;;;10.55;2.40;;;;;;;9.99;100.00;102107.19;10100096;28;20039;-70
2022/02/23 11:53:36;;;;;;;10.73;1.52;;;;;;;10.25;98.67;102108.66;10088336;28;20109;-69
2022/02/23 11:58:49;;;;;;;8.35;1.40;;;;;;;10.57;100.00;102115.63;10084036;28;20078;-69
2022/02/23 12:04:06;;;;;;;10.27;1.40;;;;;;;10.25;90.03;102105.94;10086305;28;21719;-69
2022/02/23 12:09:02;;;;;;;9.68;2.00;;;;;;;10.05;89.81;102111.53;10091246;28;20107;-69
2022/02/23 12:13:59;;;;;;;14.02;2.45;;;;;;;10.08;87.45;102119.97;10092922;28;20070;-69
2022/02/23 12:19:01;;;;;;;10.25;1.52;;;;;;;9.97;89.20;102110.19;10090460;28;20098;-69
2022/02/23 12:24:01;;;;;;;17.20;2.72;;;;;;;10.42;90.97;102104.78;10075089;28;20108;-68
2022/02/23 12:29:00;;;;;;;12.80;2.10;;;;;;;10.15;88.46;102100.53;10080746;28;20498;-69
2022/02/23 12:34:00;;;;;;;11.40;1.45;;;;;;;9.52;83.67;102100.25;10078512;28;20483;-68
2022/02/23 12:39:18;;;;;;;7.45;1.23;;;;;;;9.37;87.01;102106.53;10077450;28;20043;-69
2022/02/23 12:44:20;;;;;;;7.88;1.17;;;;;;;9.59;87.27;102103.50;10077117;28;20133;-69
2022/02/23 12:49:18;;;;;;;7.80;0.90;;;;;;;9.53;87.86;102104.59;10080485;28;20039;-69
2022/02/23 12:54:20;;;;;;;7.20;1.50;;;;;;;9.17;86.19;102102.75;10083628;28;21066;-69
2022/02/23 12:59:22;;;;;;;6.60;1.33;;;;;;;9.59;84.44;102095.31;10082032;28;20046;-68
2022/02/23 13:04:31;;;;;;;8.77;1.23;;;;;;;9.60;87.14;102073.16;10083105;28;20109;-69
2022/02/23 13:09:32;;;;;;;10.05;1.40;;;;;;;9.43;88.57;102073.50;10085026;28;20074;-69
2022/02/23 13:14:38;;;;;;;8.30;1.42;;;;;;;10.01;88.55;102067.53;10080348;28;20043;-69
2022/02/23 13:19:44;;;;;;;9.23;1.30;;;;;;;11.25;77.98;102061.97;10069346;28;20093;-69
2022/02/23 13:24:48;;;;;;;7.68;1.27;;;;;;;11.55;76.11;102045.22;10082517;28;20114;-69
2022/02/23 13:29:50;;;;;;;5.97;1.87;;;;;;;11.37;76.01;102054.19;10089687;28;20070;-69
2022/02/23 13:34:49;;;;;;;4.63;0.63;;;;;;;10.60;79.06;102043.94;10084530;28;20544;-69
2022/02/23 13:39:58;;;;;;;5.07;1.10;;;;;;;10.84;76.92;102046.78;10081767;28;20139;-69
2022/02/23 13:44:55;;;;;;;7.85;1.23;;;;;;;10.16;83.86;102036.56;10073013;28;20129;-69
2022/02/23 13:50:07;;;;;;;9.15;0.93;;;;;;;10.61;87.80;102037.41;10085598;28;20487;-68
2022/02/23 13:55:12;;;;;;;9.70;1.33;;;;;;;12.31;75.27;102023.41;10088709;28;20457;-69
2022/02/23 14:00:30;;;;;;;5.70;1.50;;;;;;;12.15;67.87;102030.22;10092531;28;20050;-69
2022/02/23 14:05:27;;;;;;;7.90;1.65;;;;;;;11.39;75.72;102019.09;10098538;28;20526;-69
2022/02/23 14:10:29;;;;;;;6.60;1.15;;;;;;;11.13;76.05;102013.91;10098911;28;20046;-68
2022/02/23 14:15:27;;;;;;;7.10;1.10;;;;;;;11.16;82.53;102010.63;10097973;28;20053;-68
2022/02/23 14:20:24;;;;;;;6.78;1.20;;;;;;;12.43;72.50;101993.56;10094005;28;20073;-68
2022/02/23 14:25:22;;;;;;;6.72;1.13;;;;;;;12.91;62.82;101986.19;10100791;28;20154;-68
2022/02/23 14:30:24;;;;;;;8.30;1.88;;;;;;;13.29;59.54;101986.06;10101135;28;20067;-68
2022/02/23 14:35:25;;;;;;;7.97;1.75;;;;;;;13.25;55.24;101994.88;10096923;28;20047;-69
2022/02/23 14:40:24;;;;;;;8.32;1.60;;;;;;;12.96;56.08;101984.16;10093565;28;20064;-68
2022/02/23 14:45:22;;;;;;;6.75;1.38;;;;;;;12.88;57.93;101975.81;10097215;28;20198;-68
2022/02/23 14:50:21;;;;;;;6.97;1.67;;;;;;;12.40;59.65;101982.41;10094715;28;20097;-68
2022/02/23 14:55:21;;;;;;;6.38;1.75;;;;;;;12.93;61.42;101962.00;10087226;28;20051;-68
2022/02/23 15:00:24;;;;;;;8.88;1.65;;;;;;;12.73;61.43;101958.50;10098206;28;20054;-68
2022/02/23 15:05:23;;;;;;;7.22;1.40;;;;;;;12.42;63.91;101963.72;10096415;28;20500;-69
2022/02/23 15:10:20;;;;;;;5.00;1.10;;;;;;;12.18;68.96;101952.84;10101026;28;20090;-69
2022/02/23 15:15:16;;;;;;;6.38;1.10;;;;;;;11.66;78.48;101941.00;10088838;28;20055;-68
2022/02/23 15:20:13;;;;;;;7.75;1.00;;;;;;;11.31;80.00;101940.34;10093061;28;20059;-68
2022/02/23 15:25:10;;;;;;;10.02;2.58;;;;;;;10.82;78.65;101960.63;10090757;28;20055;-68
2022/02/23 15:30:09;;;;;;;6.13;1.50;;;;;;;10.63;84.70;101942.19;10093378;28;20047;-69
2022/02/23 15:35:07;;;;;;;5.45;1.33;;;;;;;10.31;84.01;101940.84;10106090;28;20102;-71
2022/02/23 15:40:04;;;;;;;8.73;1.20;;;;;;;10.25;85.50;101933.72;10089772;28;20106;-72
2022/02/23 15:45:02;;;;;;;8.25;1.20;;;;;;;10.15;86.66;101936.56;10093519;28;20051;-72
2022/02/23 15:49:59;;;;;;;4.82;0.95;;;;;;;10.14;89.71;101923.16;10092880;28;20047;-71
2022/02/23 15:54:56;;;;;;;6.05;1.35;;;;;;;10.10;91.05;101914.75;10089440;28;20058;-72
2022/02/23 15:59:53;;;;;;;9.98;1.40;;;;;;;10.10;91.21;101918.28;10098032;28;20109;-72
2022/02/23 16:04:49;;;;;;;6.22;1.17;;;;;;;9.96;90.74;101916.50;10083071;28;20710;-72
2022/02/23 16:09:46;;;;;;;6.43;1.98;;;;;;;10.05;92.38;101909.31;10085691;28;20130;-72
2022/02/23 16:14:45;;;;;;;6.35;1.08;;;;;;;9.93;93.63;101900.66;10076453;28;20148;-72
2022/02/23 16:19:42;;;;;;;6.68;1.13;;;;;;;9.93;92.38;101906.13;10075130;28;20457;-72
2022/02/23 16:24:41;;;;;;;6.72;1.95;;;;;;;9.90;93.35;101891.91;10082781;28;20049;-72
2022/02/23 16:29:39;;;;;;;6.45;1.23;;;;;;;9.68;94.08;101888.81;10078936;28;20134;-72
2022/02/23 16:34:35;;;;;;;5.30;1.10;;;;;;;9.68;95.54;101889.63;10081694;28;20047;-71
2022/02/23 16:39:32;;;;;;;6.78;1.58;;;;;;;9.61;97.73;101888.31;10109132;28;20085;-72
2022/02/23 16:44:28;;;;;;;7.40;1.38;;;;;;;9.55;98.97;101889.44;10100828;28;20725;-72
2022/02/23 16:49:25;;;;;;;8.85;1.23;;;;;;;9.43;99.12;101890.59;10107891;28;20051;-71
2022/02/23 16:54:21;;;;;;;6.15;1.20;;;;;;;9.40;100.00;101888.44;10100391;28;20142;-71
2022/02/23 16:59:19;;;;;;;7.18;1.30;;;;;;;9.25;100.00;101891.22;10106371;28;20051;-72
2022/02/23 17:04:18;;;;;;;8.23;1.85;;;;;;;9.15;100.00;101896.75;10089122;28;20047;-72
2022/02/23 17:09:15;;;;;;;9.55;1.52;;;;;;;9.00;100.00;101901.13;10113831;28;20054;-71
2022/02/23 17:14:13;;;;;;;4.88;1.08;;;;;;;8.90;100.00;101912.09;10081882;28;20051;-72
2022/02/23 17:19:10;;;;;;;8.57;1.25;;;;;;;8.90;100.00;101901.19;10097764;28;20097;-71
2022/02/23 17:24:09;;;;;;;5.45;1.40;;;;;;;8.87;100.00;101909.94;10079951;28;20050;-71
2022/02/23 17:29:06;;;;;;;7.30;1.25;;;;;;;8.77;100.00;101897.13;10092035;28;20047;-70
2022/02/23 17:34:02;;;;;;;8.82;1.83;;;;;;;8.68;100.00;101898.78;10080186;28;20543;-71
2022/02/23 17:38:59;;;;;;;6.75;1.30;;;;;;;8.66;100.00;101900.13;10074350;28;20477;-71
2022/02/23 17:43:55;;;;;;;6.93;1.33;;;;;;;8.58;100.00;101898.78;10078696;28;20508;-71
2022/02/23 17:48:52;;;;;;;7.05;1.60;;;;;;;8.48;100.00;101894.19;10089975;28;20047;-71
2022/02/23 17:53:49;;;;;;;7.75;1.30;;;;;;;8.43;100.00;101910.56;10093556;28;20493;-71
2022/02/23 17:58:45;;;;;;;7.25;1.52;;;;;;;8.29;100.00;101906.72;10074125;28;20048;-71
2022/02/23 18:03:42;;;;;;;9.30;2.40;;;;;;;8.24;100.00;101910.25;10075804;28;20660;-71
2022/02/23 18:08:39;;;;;;;8.95;1.40;;;;;;;8.24;100.00;101904.81;10098357;28;20049;-71
2022/02/23 18:13:36;;;;;;;7.28;1.45;;;;;;;8.17;100.00;101905.09;10084817;28;20039;-71
2022/02/23 18:18:36;;;;;;;11.52;3.05;;;;;;;8.07;100.00;101910.50;10078927;28;20059;-71
2022/02/23 18:23:33;;;;;;;9.52;1.95;;;;;;;8.03;100.00;101898.53;10075560;28;20070;-71
2022/02/23 18:28:29;;;;;;;7.20;2.25;;;;;;;7.92;100.00;101891.44;10077986;28;20051;-71
2022/02/23 18:33:26;;;;;;;12.23;1.98;;;;;;;7.95;100.00;101886.25;10073202;28;20063;-71
2022/02/23 18:38:23;;;;;;;5.65;1.52;;;;;;;7.86;100.00;101881.63;10103465;28;20087;-71
2022/02/23 18:43:20;;;;;;;6.85;1.63;;;;;;;7.76;100.00;101877.81;10107786;28;20401;-71
2022/02/23 18:48:16;;;;;;;5.15;1.33;;;;;;;7.72;100.00;101871.25;10108154;28;20113;-71
2022/02/23 18:53:13;;;;;;;7.80;1.42;;;;;;;7.68;100.00;101864.75;10114283;28;20101;-71
2022/02/23 18:58:09;;;;;;;7.88;1.15;;;;;;;7.54;100.00;101858.16;10109426;28;20421;-71
2022/02/23 19:03:06;;;;;;;8.68;1.48;;;;;;;7.58;100.00;101851.09;10098561;28;20048;-71
2022/02/23 19:08:02;;;;;;;6.40;2.00;;;;;;;7.47;100.00;101853.00;10090549;28;20051;-72
2022/02/23 19:12:59;;;;;;;7.20;2.03;;;;;;;7.45;100.00;101854.34;10077189;28;20051;-71
2022/02/23 19:17:55;;;;;;;7.63;1.85;;;;;;;7.50;100.00;101847.03;10085636;28;20078;-71
2022/02/23 19:22:53;;;;;;;5.93;1.45;;;;;;;7.46;100.00;101853.28;10077012;28;20421;-72
2022/02/23 19:27:49;;;;;;;5.30;1.15;;;;;;;7.52;100.00;101849.44;10094607;28;20079;-71
2022/02/23 19:32:46;;;;;;;8.05;1.30;;;;;;;7.50;100.00;101851.66;10076823;28;20083;-71
2022/02/23 19:37:43;;;;;;;8.90;1.88;;;;;;;7.46;100.00;101834.22;10104531;28;20086;-71
2022/02/23 19:42:41;;;;;;;9.32;1.80;;;;;;;7.54;100.00;101825.50;10128037;28;20101;-71
2022/02/23 19:47:38;;;;;;;8.23;1.98;;;;;;;7.53;100.00;101813.81;10103227;28;20501;-71
2022/02/23 19:52:35;;;;;;;8.32;2.10;;;;;;;7.47;100.00;101822.22;10105848;28;20051;-72
2022/02/23 19:57:32;;;;;;;9.32;1.90;;;;;;;7.44;100.00;101809.19;10103282;28;20078;-70
2022/02/23 20:02:29;;;;;;;9.93;2.15;;;;;;;7.50;100.00;101819.00;10093473;28;20047;-70
2022/02/23 20:07:25;;;;;;;10.70;2.30;;;;;;;7.48;100.00;101810.28;10083431;28;20125;-71
2022/02/23 20:12:22;;;;;;;8.55;2.15;;;;;;;7.40;100.00;101802.63;10076236;28;20572;-70
2022/02/23 20:17:18;;;;;;;8.85;2.42;;;;;;;7.44;100.00;101798.28;10090152;28;20113;-70
2022/02/23 20:22:16;;;;;;;6.65;2.00;;;;;;;7.33;100.00;101784.69;10075876;28;20078;-70
2022/02/23 20:27:12;;;;;;;9.68;2.13;;;;;;;7.22;100.00;101779.47;10087921;28;20837;-70
2022/02/23 20:32:09;;;;;;;10.80;2.17;;;;;;;7.20;100.00;101774.31;10075563;28;20055;-70
2022/02/23 20:37:07;;;;;;;9.52;1.95;;;;;;;7.14;100.00;101767.22;10098237;28;20074;-70
2022/02/23 20:42:03;;;;;;;10.52;2.00;;;;;;;7.03;100.00;101754.69;10114725;28;20058;-71
2022/02/23 20:47:01;;;;;;;9.88;2.10;;;;;;;7.20;100.00;101749.84;10096257;28;20058;-70
2022/02/23 20:51:58;;;;;;;13.85;2.97;;;;;;;7.20;100.00;101730.78;10075313;28;20153;-70
2022/02/23 20:56:55;;;;;;;10.88;1.90;;;;;;;7.15;100.00;101730.78;10102967;28;20046;-70
2022/02/23 21:01:51;;;;;;;8.02;2.28;;;;;;;7.23;100.00;101713.13;10113965;28;20050;-72
2022/02/23 21:06:50;;;;;;;15.98;3.17;;;;;;;7.24;100.00;101707.41;10097478;28;20049;-71
2022/02/23 21:11:47;;;;;;;9.60;2.40;;;;;;;7.19;100.00;101704.66;10112665;28;20046;-70
2022/02/23 21:16:44;;;;;;;13.32;2.38;;;;;;;7.23;100.00;101689.44;10095314;28;20469;-70
2022/02/23 21:21:43;;;;;;;14.00;1.92;;;;;;;7.15;100.00;101681.84;10108600;28;20154;-70
2022/02/23 21:26:39;;;;;;;10.05;2.50;;;;;;;7.17;100.00;101674.19;10115795;28;20142;-70
2022/02/23 21:31:36;;;;;;;11.85;2.28;;;;;;;7.05;100.00;101671.75;10096364;28;20074;-70
2022/02/23 21:36:32;;;;;;;10.93;3.60;;;;;;;7.06;100.00;101667.97;10090459;28;20649;-70
2022/02/23 21:41:29;;;;;;;10.57;2.40;;;;;;;7.15;100.00;101657.38;10084766;28;20067;-71
2022/02/23 21:46:26;;;;;;;10.38;2.42;;;;;;;7.24;100.00;101644.00;10089219;28;20094;-71
2022/02/23 21:51:23;;;;;;;10.02;2.40;;;;;;;7.30;100.00;101635.59;10098430;28;20105;-71
2022/02/23 21:56:19;;;;;;;8.82;2.10;;;;;;;7.32;100.00;101633.41;10086449;28;20043;-70
2022/02/23 22:01:16;;;;;;;8.55;2.17;;;;;;;7.37;100.00;101622.50;10107255;28;20070;-71
2022/02/23 22:06:13;;;;;;;7.28;2.55;;;;;;;7.25;100.00;101611.09;10085160;28;20043;-71
2022/02/23 22:11:09;;;;;;;12.63;2.03;;;;;;;7.24;100.00;101598.59;10094038;28;20097;-71
2022/02/23 22:16:07;;;;;;;8.02;2.13;;;;;;;7.31;100.00;101603.75;10083918;28;20050;-71
2022/02/23 22:21:03;;;;;;;11.60;2.50;;;;;;;7.27;100.00;101591.81;10079709;28;20051;-71
2022/02/23 22:26:00;;;;;;;10.93;1.95;;;;;;;7.36;100.00;101579.28;10090998;28;20043;-71
2022/02/23 22:30:56;;;;;;;8.63;1.80;;;;;;;7.40;100.00;101580.34;10090909;28;20052;-71
2022/02/23 22:35:54;;;;;;;13.20;1.88;;;;;;;7.34;100.00;101571.38;10084709;28;20371;-71
2022/02/23 22:40:51;;;;;;;9.00;2.05;;;;;;;7.40;100.00;101560.47;10083657;28;20043;-72
2022/02/23 22:45:47;;;;;;;8.63;1.73;;;;;;;7.38;100.00;101558.06;10085812;28;20047;-71